sensor_id;sensor_type;location;lat;lon;timestamp;temperature;humidity
5621;DHT22;2832;50.864;12.186;2023-09-19T00:01:40;21.60;99.90
5621;DHT22;2832;50.864;12.186;2023-09-19T00:04:10;21.60;99.90
5621;DHT22;2832;50.864;12.186;2023-09-19T00:06:39;21.60;99.90
5621;DHT22;2832;50.864;12.186;2023-09-19T00:09:07;21.60;99.90
5621;DHT22;2832;50.864;12.186;2023-09-19T00:11:36;21.50;99.90
5621;DHT22;2832;50.864;12.186;2023-09-19T00:14:05;21.60;99.90
5621;DHT22;2832;50.864;12.186;2023-09-19T00:16:38;21.60;99.90
5621;DHT22;2832;50.864;12.186;2023-09-19T00:19:13;21.60;99.90
5621;DHT22;2832;50.864;12.186;2023-09-19T00:21:44;21.60;99.90
5621;DHT22;2832;50.864;12.186;2023-09-19T00:24:13;21.60;99.90
5621;DHT22;2832;50.864;12.186;2023-09-19T00:26:45;21.60;99.90
5621;DHT22;2832;50.864;12.186;2023-09-19T00:29:14;21.60;99.90
5621;DHT22;2832;50.864;12.186;2023-09-19T00:31:45;21.60;99.90
5621;DHT22;2832;50.864;12.186;2023-09-19T00:34:13;21.60;99.90
5621;DHT22;2832;50.864;12.186;2023-09-19T00:36:41;21.60;99.90
5621;DHT22;2832;50.864;12.186;2023-09-19T00:39:10;21.60;99.90
5621;DHT22;2832;50.864;12.186;2023-09-19T00:41:38;21.60;99.90
5621;DHT22;2832;50.864;12.186;2023-09-19T00:44:07;21.60;99.90
5621;DHT22;2832;50.864;12.186;2023-09-19T00:46:37;21.60;99.90
5621;DHT22;2832;50.864;12.186;2023-09-19T00:49:08;21.60;99.90
5621;DHT22;2832;50.864;12.186;2023-09-19T00:51:39;21.50;99.90
5621;DHT22;2832;50.864;12.186;2023-09-19T00:54:13;21.50;99.90
5621;DHT22;2832;50.864;12.186;2023-09-19T00:56:45;21.50;99.90
5621;DHT22;2832;50.864;12.186;2023-09-19T00:59:14;21.50;99.90
5621;DHT22;2832;50.864;12.186;2023-09-19T01:01:42;21.50;99.90
5621;DHT22;2832;50.864;12.186;2023-09-19T01:04:14;21.50;99.90
5621;DHT22;2832;50.864;12.186;2023-09-19T01:06:44;21.50;99.90
5621;DHT22;2832;50.864;12.186;2023-09-19T01:09:14;21.40;99.90
5621;DHT22;2832;50.864;12.186;2023-09-19T01:11:47;21.40;99.90
5621;DHT22;2832;50.864;12.186;2023-09-19T01:14:25;21.50;99.90
5621;DHT22;2832;50.864;12.186;2023-09-19T01:17:02;21.50;99.90
5621;DHT22;2832;50.864;12.186;2023-09-19T01:22:57;21.40;99.90
5621;DHT22;2832;50.864;12.186;2023-09-19T01:26:06;21.40;99.90
5621;DHT22;2832;50.864;12.186;2023-09-19T01:28:50;21.40;99.90
5621;DHT22;2832;50.864;12.186;2023-09-19T01:31:24;21.40;99.90
5621;DHT22;2832;50.864;12.186;2023-09-19T01:33:57;21.40;99.90
5621;DHT22;2832;50.864;12.186;2023-09-19T01:36:25;21.30;99.90
5621;DHT22;2832;50.864;12.186;2023-09-19T01:39:01;21.30;99.90
5621;DHT22;2832;50.864;12.186;2023-09-19T01:41:51;21.30;99.90
5621;DHT22;2832;50.864;12.186;2023-09-19T01:44:44;21.30;99.90
5621;DHT22;2832;50.864;12.186;2023-09-19T01:47:23;21.30;99.90
5621;DHT22;2832;50.864;12.186;2023-09-19T01:50:01;21.30;99.90
5621;DHT22;2832;50.864;12.186;2023-09-19T01:52:39;21.30;99.90
5621;DHT22;2832;50.864;12.186;2023-09-19T01:55:12;21.20;99.90
5621;DHT22;2832;50.864;12.186;2023-09-19T01:57:50;21.20;99.90
5621;DHT22;2832;50.864;12.186;2023-09-19T02:00:21;21.20;99.90
5621;DHT22;2832;50.864;12.186;2023-09-19T02:02:51;21.20;99.90
5621;DHT22;2832;50.864;12.186;2023-09-19T02:05:38;21.20;99.90
5621;DHT22;2832;50.864;12.186;2023-09-19T02:08:06;21.20;99.90
5621;DHT22;2832;50.864;12.186;2023-09-19T02:10:34;21.20;99.90
5621;DHT22;2832;50.864;12.186;2023-09-19T02:13:07;21.20;99.90
5621;DHT22;2832;50.864;12.186;2023-09-19T02:15:37;21.10;99.90
5621;DHT22;2832;50.864;12.186;2023-09-19T02:18:07;21.20;99.90
5621;DHT22;2832;50.864;12.186;2023-09-19T02:20:35;21.20;99.90
5621;DHT22;2832;50.864;12.186;2023-09-19T02:23:03;21.20;99.90
5621;DHT22;2832;50.864;12.186;2023-09-19T02:25:32;21.20;99.90
5621;DHT22;2832;50.864;12.186;2023-09-19T02:28:00;21.20;99.90
5621;DHT22;2832;50.864;12.186;2023-09-19T02:30:31;21.20;99.90
5621;DHT22;2832;50.864;12.186;2023-09-19T02:33:10;21.20;99.90
5621;DHT22;2832;50.864;12.186;2023-09-19T02:35:40;21.20;99.90
5621;DHT22;2832;50.864;12.186;2023-09-19T02:38:09;21.20;99.90
5621;DHT22;2832;50.864;12.186;2023-09-19T02:40:39;21.20;99.90
5621;DHT22;2832;50.864;12.186;2023-09-19T02:43:14;21.20;99.90
5621;DHT22;2832;50.864;12.186;2023-09-19T02:45:42;21.20;99.90
5621;DHT22;2832;50.864;12.186;2023-09-19T02:48:12;21.10;99.90
5621;DHT22;2832;50.864;12.186;2023-09-19T02:50:42;21.10;99.90
5621;DHT22;2832;50.864;12.186;2023-09-19T02:53:10;21.10;99.90
5621;DHT22;2832;50.864;12.186;2023-09-19T02:55:40;21.10;99.90
5621;DHT22;2832;50.864;12.186;2023-09-19T02:58:10;21.00;99.90
5621;DHT22;2832;50.864;12.186;2023-09-19T03:00:41;21.10;99.90
5621;DHT22;2832;50.864;12.186;2023-09-19T03:03:15;21.10;99.90
5621;DHT22;2832;50.864;12.186;2023-09-19T03:05:44;21.10;99.90
5621;DHT22;2832;50.864;12.186;2023-09-19T03:08:13;21.00;99.90
5621;DHT22;2832;50.864;12.186;2023-09-19T03:10:45;21.00;99.90
5621;DHT22;2832;50.864;12.186;2023-09-19T03:13:19;21.00;99.90
5621;DHT22;2832;50.864;12.186;2023-09-19T03:15:49;21.00;99.90
5621;DHT22;2832;50.864;12.186;2023-09-19T03:18:18;21.00;99.90
5621;DHT22;2832;50.864;12.186;2023-09-19T03:20:53;21.00;99.90
5621;DHT22;2832;50.864;12.186;2023-09-19T03:23:26;21.00;99.90
5621;DHT22;2832;50.864;12.186;2023-09-19T03:25:55;21.00;99.90
5621;DHT22;2832;50.864;12.186;2023-09-19T03:28:25;21.00;99.90
5621;DHT22;2832;50.864;12.186;2023-09-19T03:30:59;21.00;99.90
5621;DHT22;2832;50.864;12.186;2023-09-19T03:33:33;21.00;99.90
5621;DHT22;2832;50.864;12.186;2023-09-19T03:36:02;21.00;99.90
5621;DHT22;2832;50.864;12.186;2023-09-19T03:38:36;21.00;99.90
5621;DHT22;2832;50.864;12.186;2023-09-19T03:41:04;20.90;99.90
5621;DHT22;2832;50.864;12.186;2023-09-19T03:43:36;20.90;99.90
5621;DHT22;2832;50.864;12.186;2023-09-19T03:46:04;20.90;99.90
5621;DHT22;2832;50.864;12.186;2023-09-19T03:48:53;20.90;99.90
5621;DHT22;2832;50.864;12.186;2023-09-19T03:51:22;20.90;99.90
5621;DHT22;2832;50.864;12.186;2023-09-19T03:53:50;20.90;99.90
5621;DHT22;2832;50.864;12.186;2023-09-19T03:56:18;20.90;99.90
5621;DHT22;2832;50.864;12.186;2023-09-19T03:58:46;20.90;99.90
5621;DHT22;2832;50.864;12.186;2023-09-19T04:01:17;20.90;99.90
5621;DHT22;2832;50.864;12.186;2023-09-19T04:03:45;20.80;99.90
5621;DHT22;2832;50.864;12.186;2023-09-19T04:06:15;20.80;99.90
5621;DHT22;2832;50.864;12.186;2023-09-19T04:08:44;20.80;99.90
5621;DHT22;2832;50.864;12.186;2023-09-19T04:11:13;20.80;99.90
5621;DHT22;2832;50.864;12.186;2023-09-19T04:13:44;20.80;99.90
5621;DHT22;2832;50.864;12.186;2023-09-19T04:16:19;20.80;99.90
5621;DHT22;2832;50.864;12.186;2023-09-19T04:18:49;20.80;99.90
5621;DHT22;2832;50.864;12.186;2023-09-19T04:21:18;20.80;99.90
5621;DHT22;2832;50.864;12.186;2023-09-19T04:23:48;20.80;99.90
5621;DHT22;2832;50.864;12.186;2023-09-19T04:26:18;20.80;99.90
5621;DHT22;2832;50.864;12.186;2023-09-19T04:28:52;20.80;99.90
5621;DHT22;2832;50.864;12.186;2023-09-19T04:31:23;20.80;99.90
5621;DHT22;2832;50.864;12.186;2023-09-19T04:33:52;20.80;99.90
5621;DHT22;2832;50.864;12.186;2023-09-19T04:36:22;20.80;99.90
5621;DHT22;2832;50.864;12.186;2023-09-19T04:38:50;20.80;99.90
5621;DHT22;2832;50.864;12.186;2023-09-19T04:41:19;20.70;99.90
5621;DHT22;2832;50.864;12.186;2023-09-19T04:43:55;20.70;99.90
5621;DHT22;2832;50.864;12.186;2023-09-19T04:46:24;20.70;99.90
5621;DHT22;2832;50.864;12.186;2023-09-19T04:48:52;20.70;99.90
5621;DHT22;2832;50.864;12.186;2023-09-19T04:51:22;20.70;99.90
5621;DHT22;2832;50.864;12.186;2023-09-19T04:53:50;20.70;99.90
5621;DHT22;2832;50.864;12.186;2023-09-19T04:56:21;20.70;99.90
5621;DHT22;2832;50.864;12.186;2023-09-19T04:58:50;20.70;99.90
5621;DHT22;2832;50.864;12.186;2023-09-19T05:01:19;20.70;99.90
5621;DHT22;2832;50.864;12.186;2023-09-19T05:03:49;20.70;99.90
5621;DHT22;2832;50.864;12.186;2023-09-19T05:06:25;20.70;99.90
5621;DHT22;2832;50.864;12.186;2023-09-19T05:08:54;20.70;99.90
5621;DHT22;2832;50.864;12.186;2023-09-19T05:11:22;20.70;99.90
5621;DHT22;2832;50.864;12.186;2023-09-19T05:13:51;20.60;99.90
5621;DHT22;2832;50.864;12.186;2023-09-19T05:16:21;20.70;99.90
5621;DHT22;2832;50.864;12.186;2023-09-19T05:18:50;20.60;99.90
5621;DHT22;2832;50.864;12.186;2023-09-19T05:21:18;20.60;99.90
5621;DHT22;2832;50.864;12.186;2023-09-19T05:23:51;20.60;99.90
5621;DHT22;2832;50.864;12.186;2023-09-19T05:26:23;20.60;99.90
5621;DHT22;2832;50.864;12.186;2023-09-19T05:28:52;20.60;99.90
5621;DHT22;2832;50.864;12.186;2023-09-19T05:31:20;20.60;99.90
5621;DHT22;2832;50.864;12.186;2023-09-19T05:33:52;20.60;99.90
5621;DHT22;2832;50.864;12.186;2023-09-19T05:36:21;20.60;99.90
5621;DHT22;2832;50.864;12.186;2023-09-19T05:38:54;20.60;99.90
5621;DHT22;2832;50.864;12.186;2023-09-19T05:41:27;20.70;99.90
5621;DHT22;2832;50.864;12.186;2023-09-19T05:43:58;20.60;99.90
5621;DHT22;2832;50.864;12.186;2023-09-19T05:46:27;20.50;99.90
5621;DHT22;2832;50.864;12.186;2023-09-19T05:48:58;20.50;99.90
5621;DHT22;2832;50.864;12.186;2023-09-19T05:51:29;20.50;99.90
5621;DHT22;2832;50.864;12.186;2023-09-19T05:53:58;20.50;99.90
5621;DHT22;2832;50.864;12.186;2023-09-19T05:56:26;20.50;99.90
5621;DHT22;2832;50.864;12.186;2023-09-19T05:58:55;20.40;99.90
5621;DHT22;2832;50.864;12.186;2023-09-19T06:01:25;20.40;99.90
5621;DHT22;2832;50.864;12.186;2023-09-19T06:03:56;20.40;99.90
5621;DHT22;2832;50.864;12.186;2023-09-19T06:06:27;20.40;99.90
5621;DHT22;2832;50.864;12.186;2023-09-19T06:09:07;20.30;99.90
5621;DHT22;2832;50.864;12.186;2023-09-19T06:11:36;20.30;99.90
5621;DHT22;2832;50.864;12.186;2023-09-19T06:14:05;20.30;99.90
5621;DHT22;2832;50.864;12.186;2023-09-19T06:16:33;20.30;99.90
5621;DHT22;2832;50.864;12.186;2023-09-19T06:19:02;20.30;99.90
5621;DHT22;2832;50.864;12.186;2023-09-19T06:21:33;20.30;99.90
5621;DHT22;2832;50.864;12.186;2023-09-19T06:24:04;20.30;99.90
5621;DHT22;2832;50.864;12.186;2023-09-19T06:26:33;20.40;99.90
5621;DHT22;2832;50.864;12.186;2023-09-19T06:29:01;20.40;99.90
5621;DHT22;2832;50.864;12.186;2023-09-19T06:31:34;20.50;99.90
5621;DHT22;2832;50.864;12.186;2023-09-19T06:34:05;20.50;99.90
5621;DHT22;2832;50.864;12.186;2023-09-19T06:36:35;20.50;99.90
5621;DHT22;2832;50.864;12.186;2023-09-19T06:39:08;20.60;99.90
5621;DHT22;2832;50.864;12.186;2023-09-19T06:41:40;20.50;99.90
5621;DHT22;2832;50.864;12.186;2023-09-19T06:44:10;20.60;99.90
5621;DHT22;2832;50.864;12.186;2023-09-19T06:46:42;20.60;99.90
5621;DHT22;2832;50.864;12.186;2023-09-19T06:49:15;20.60;99.90
5621;DHT22;2832;50.864;12.186;2023-09-19T06:51:44;20.60;99.90
5621;DHT22;2832;50.864;12.186;2023-09-19T06:54:16;20.60;99.90
5621;DHT22;2832;50.864;12.186;2023-09-19T06:56:47;20.60;99.90
5621;DHT22;2832;50.864;12.186;2023-09-19T06:59:18;20.70;99.90
5621;DHT22;2832;50.864;12.186;2023-09-19T07:01:52;20.70;99.90
5621;DHT22;2832;50.864;12.186;2023-09-19T07:04:20;20.70;99.90
5621;DHT22;2832;50.864;12.186;2023-09-19T07:06:51;20.70;99.90
5621;DHT22;2832;50.864;12.186;2023-09-19T07:09:22;20.70;99.90
5621;DHT22;2832;50.864;12.186;2023-09-19T07:11:55;20.70;99.90
5621;DHT22;2832;50.864;12.186;2023-09-19T07:14:25;20.70;99.90
5621;DHT22;2832;50.864;12.186;2023-09-19T07:16:58;20.70;99.90
5621;DHT22;2832;50.864;12.186;2023-09-19T07:19:32;20.70;99.90
5621;DHT22;2832;50.864;12.186;2023-09-19T07:22:00;20.70;99.90
5621;DHT22;2832;50.864;12.186;2023-09-19T07:24:41;20.60;99.90
5621;DHT22;2832;50.864;12.186;2023-09-19T07:27:12;20.70;99.90
5621;DHT22;2832;50.864;12.186;2023-09-19T07:29:46;20.70;99.90
5621;DHT22;2832;50.864;12.186;2023-09-19T07:32:16;20.70;99.90
5621;DHT22;2832;50.864;12.186;2023-09-19T07:34:44;20.70;99.90
5621;DHT22;2832;50.864;12.186;2023-09-19T07:37:14;20.70;99.90
5621;DHT22;2832;50.864;12.186;2023-09-19T07:39:47;20.80;99.90
5621;DHT22;2832;50.864;12.186;2023-09-19T07:42:17;20.80;99.90
5621;DHT22;2832;50.864;12.186;2023-09-19T07:44:50;20.80;99.90
5621;DHT22;2832;50.864;12.186;2023-09-19T07:47:21;20.80;99.90
5621;DHT22;2832;50.864;12.186;2023-09-19T07:49:51;20.80;99.90
5621;DHT22;2832;50.864;12.186;2023-09-19T07:52:27;20.90;99.90
5621;DHT22;2832;50.864;12.186;2023-09-19T07:55:04;20.90;99.90
5621;DHT22;2832;50.864;12.186;2023-09-19T07:57:58;20.90;99.90
5621;DHT22;2832;50.864;12.186;2023-09-19T08:00:27;20.90;99.90
5621;DHT22;2832;50.864;12.186;2023-09-19T08:02:56;20.80;99.90
5621;DHT22;2832;50.864;12.186;2023-09-19T08:05:25;20.80;99.90
5621;DHT22;2832;50.864;12.186;2023-09-19T08:07:54;20.80;99.90
5621;DHT22;2832;50.864;12.186;2023-09-19T08:10:37;20.80;99.90
5621;DHT22;2832;50.864;12.186;2023-09-19T08:13:06;20.90;99.90
5621;DHT22;2832;50.864;12.186;2023-09-19T08:15:43;20.90;99.90
5621;DHT22;2832;50.864;12.186;2023-09-19T08:18:13;20.90;99.90
5621;DHT22;2832;50.864;12.186;2023-09-19T08:20:41;20.90;99.90
5621;DHT22;2832;50.864;12.186;2023-09-19T08:23:13;20.90;99.90
5621;DHT22;2832;50.864;12.186;2023-09-19T08:25:45;20.90;99.90
5621;DHT22;2832;50.864;12.186;2023-09-19T08:28:14;20.90;99.90
5621;DHT22;2832;50.864;12.186;2023-09-19T08:30:46;20.90;99.90
5621;DHT22;2832;50.864;12.186;2023-09-19T08:33:17;21.00;99.90
5621;DHT22;2832;50.864;12.186;2023-09-19T08:36:04;20.90;99.90
5621;DHT22;2832;50.864;12.186;2023-09-19T08:38:35;21.00;99.90
5621;DHT22;2832;50.864;12.186;2023-09-19T08:41:17;20.90;99.90
5621;DHT22;2832;50.864;12.186;2023-09-19T08:43:46;20.90;99.90
5621;DHT22;2832;50.864;12.186;2023-09-19T08:46:21;20.90;99.90
5621;DHT22;2832;50.864;12.186;2023-09-19T08:49:04;20.90;99.90
5621;DHT22;2832;50.864;12.186;2023-09-19T08:51:42;20.90;99.90
5621;DHT22;2832;50.864;12.186;2023-09-19T08:54:22;20.90;99.90
5621;DHT22;2832;50.864;12.186;2023-09-19T08:57:02;21.00;99.90
5621;DHT22;2832;50.864;12.186;2023-09-19T08:59:38;21.00;99.70
5621;DHT22;2832;50.864;12.186;2023-09-19T09:02:22;21.00;99.80
5621;DHT22;2832;50.864;12.186;2023-09-19T09:04:52;21.00;99.70
5621;DHT22;2832;50.864;12.186;2023-09-19T09:07:22;21.00;99.60
5621;DHT22;2832;50.864;12.186;2023-09-19T09:10:09;21.00;99.40
5621;DHT22;2832;50.864;12.186;2023-09-19T09:12:40;21.00;99.40
5621;DHT22;2832;50.864;12.186;2023-09-19T09:15:10;21.00;99.30
5621;DHT22;2832;50.864;12.186;2023-09-19T09:17:44;21.00;99.10
5621;DHT22;2832;50.864;12.186;2023-09-19T09:20:18;21.10;99.10
5621;DHT22;2832;50.864;12.186;2023-09-19T09:22:55;21.10;98.90
5621;DHT22;2832;50.864;12.186;2023-09-19T09:25:51;21.00;98.80
5621;DHT22;2832;50.864;12.186;2023-09-19T09:28:34;21.00;98.80
5621;DHT22;2832;50.864;12.186;2023-09-19T09:31:22;21.00;98.80
5621;DHT22;2832;50.864;12.186;2023-09-19T09:33:54;21.00;98.50
5621;DHT22;2832;50.864;12.186;2023-09-19T09:36:37;21.00;98.60
5621;DHT22;2832;50.864;12.186;2023-09-19T09:39:10;21.00;98.40
5621;DHT22;2832;50.864;12.186;2023-09-19T09:41:51;21.10;98.30
5621;DHT22;2832;50.864;12.186;2023-09-19T09:44:22;21.10;98.30
5621;DHT22;2832;50.864;12.186;2023-09-19T09:46:55;21.10;98.30
5621;DHT22;2832;50.864;12.186;2023-09-19T09:49:49;21.10;98.10
5621;DHT22;2832;50.864;12.186;2023-09-19T09:52:21;21.10;98.20
5621;DHT22;2832;50.864;12.186;2023-09-19T09:55:01;21.10;98.30
5621;DHT22;2832;50.864;12.186;2023-09-19T09:57:33;21.20;98.60
5621;DHT22;2832;50.864;12.186;2023-09-19T10:00:08;21.20;98.30
5621;DHT22;2832;50.864;12.186;2023-09-19T10:02:48;21.20;98.30
5621;DHT22;2832;50.864;12.186;2023-09-19T10:05:18;21.20;98.20
5621;DHT22;2832;50.864;12.186;2023-09-19T10:07:57;21.20;98.20
5621;DHT22;2832;50.864;12.186;2023-09-19T10:10:40;21.20;98.20
5621;DHT22;2832;50.864;12.186;2023-09-19T10:13:25;21.20;98.10
5621;DHT22;2832;50.864;12.186;2023-09-19T10:15:59;21.20;97.90
5621;DHT22;2832;50.864;12.186;2023-09-19T10:18:36;21.20;97.80
5621;DHT22;2832;50.864;12.186;2023-09-19T10:21:09;21.20;97.70
5621;DHT22;2832;50.864;12.186;2023-09-19T10:23:41;21.30;97.90
5621;DHT22;2832;50.864;12.186;2023-09-19T10:26:12;21.30;97.80
5621;DHT22;2832;50.864;12.186;2023-09-19T10:28:47;21.30;97.70
5621;DHT22;2832;50.864;12.186;2023-09-19T10:31:55;21.30;97.70
5621;DHT22;2832;50.864;12.186;2023-09-19T10:34:30;21.40;97.70
5621;DHT22;2832;50.864;12.186;2023-09-19T10:37:03;21.40;97.60
5621;DHT22;2832;50.864;12.186;2023-09-19T10:39:33;21.40;97.50
5621;DHT22;2832;50.864;12.186;2023-09-19T10:42:09;21.40;97.50
5621;DHT22;2832;50.864;12.186;2023-09-19T10:44:52;21.40;97.50
5621;DHT22;2832;50.864;12.186;2023-09-19T10:47:36;21.40;97.60
5621;DHT22;2832;50.864;12.186;2023-09-19T10:50:12;21.40;97.40
5621;DHT22;2832;50.864;12.186;2023-09-19T10:52:51;21.40;97.40
5621;DHT22;2832;50.864;12.186;2023-09-19T10:55:37;21.40;97.40
5621;DHT22;2832;50.864;12.186;2023-09-19T10:58:12;21.50;97.40
5621;DHT22;2832;50.864;12.186;2023-09-19T11:00:53;21.50;97.40
5621;DHT22;2832;50.864;12.186;2023-09-19T11:03:37;21.50;97.30
5621;DHT22;2832;50.864;12.186;2023-09-19T11:06:12;21.50;97.20
5621;DHT22;2832;50.864;12.186;2023-09-19T11:09:01;21.50;97.20
5621;DHT22;2832;50.864;12.186;2023-09-19T11:11:51;21.50;97.20
5621;DHT22;2832;50.864;12.186;2023-09-19T11:14:41;21.50;97.10
5621;DHT22;2832;50.864;12.186;2023-09-19T11:17:41;21.50;97.10
5621;DHT22;2832;50.864;12.186;2023-09-19T11:20:25;21.60;97.00
5621;DHT22;2832;50.864;12.186;2023-09-19T11:23:22;21.60;96.80
5621;DHT22;2832;50.864;12.186;2023-09-19T11:25:59;21.60;96.60
5621;DHT22;2832;50.864;12.186;2023-09-19T11:28:35;21.50;96.50
5621;DHT22;2832;50.864;12.186;2023-09-19T11:34:45;21.60;96.50
5621;DHT22;2832;50.864;12.186;2023-09-19T11:47:01;21.60;96.10
5621;DHT22;2832;50.864;12.186;2023-09-19T11:49:31;21.60;95.90
5621;DHT22;2832;50.864;12.186;2023-09-19T11:52:02;21.60;95.90
5621;DHT22;2832;50.864;12.186;2023-09-19T11:54:35;21.60;95.90
5621;DHT22;2832;50.864;12.186;2023-09-19T11:57:21;21.60;95.90
5621;DHT22;2832;50.864;12.186;2023-09-19T12:00:00;21.70;95.70
5621;DHT22;2832;50.864;12.186;2023-09-19T12:02:44;21.70;95.80
5621;DHT22;2832;50.864;12.186;2023-09-19T12:05:29;21.70;95.80
5621;DHT22;2832;50.864;12.186;2023-09-19T12:08:10;21.70;95.70
5621;DHT22;2832;50.864;12.186;2023-09-19T12:10:51;21.70;95.70
5621;DHT22;2832;50.864;12.186;2023-09-19T12:13:22;21.70;95.70
5621;DHT22;2832;50.864;12.186;2023-09-19T12:15:53;21.70;95.30
5621;DHT22;2832;50.864;12.186;2023-09-19T12:18:31;21.70;94.90
5621;DHT22;2832;50.864;12.186;2023-09-19T12:21:02;21.70;94.40
5621;DHT22;2832;50.864;12.186;2023-09-19T12:23:38;21.70;94.20
5621;DHT22;2832;50.864;12.186;2023-09-19T12:26:09;21.70;94.00
5621;DHT22;2832;50.864;12.186;2023-09-19T12:28:45;21.60;93.80
5621;DHT22;2832;50.864;12.186;2023-09-19T12:31:14;21.60;93.80
5621;DHT22;2832;50.864;12.186;2023-09-19T12:33:45;21.70;93.90
5621;DHT22;2832;50.864;12.186;2023-09-19T12:36:22;21.70;93.90
5621;DHT22;2832;50.864;12.186;2023-09-19T12:39:06;21.70;93.80
5621;DHT22;2832;50.864;12.186;2023-09-19T12:42:21;21.80;93.70
5621;DHT22;2832;50.864;12.186;2023-09-19T12:45:08;21.80;93.60
5621;DHT22;2832;50.864;12.186;2023-09-19T12:47:37;21.80;93.50
5621;DHT22;2832;50.864;12.186;2023-09-19T12:50:11;21.80;93.40
5621;DHT22;2832;50.864;12.186;2023-09-19T12:53:04;21.80;93.30
5621;DHT22;2832;50.864;12.186;2023-09-19T12:55:58;21.80;93.20
5621;DHT22;2832;50.864;12.186;2023-09-19T12:58:49;21.90;93.30
5621;DHT22;2832;50.864;12.186;2023-09-19T13:01:20;21.90;93.10
5621;DHT22;2832;50.864;12.186;2023-09-19T13:04:15;21.90;92.80
5621;DHT22;2832;50.864;12.186;2023-09-19T13:06:49;21.90;92.60
5621;DHT22;2832;50.864;12.186;2023-09-19T13:09:18;21.90;92.30
5621;DHT22;2832;50.864;12.186;2023-09-19T13:11:51;21.90;92.30
5621;DHT22;2832;50.864;12.186;2023-09-19T13:14:23;22.00;92.30
5621;DHT22;2832;50.864;12.186;2023-09-19T13:17:11;21.90;92.10
5621;DHT22;2832;50.864;12.186;2023-09-19T13:19:53;21.90;92.00
5621;DHT22;2832;50.864;12.186;2023-09-19T13:22:41;21.90;92.20
5621;DHT22;2832;50.864;12.186;2023-09-19T13:25:24;21.90;92.10
5621;DHT22;2832;50.864;12.186;2023-09-19T13:28:09;22.00;92.10
5621;DHT22;2832;50.864;12.186;2023-09-19T13:31:06;22.00;91.50
5621;DHT22;2832;50.864;12.186;2023-09-19T13:33:46;22.00;91.30
5621;DHT22;2832;50.864;12.186;2023-09-19T13:36:32;22.00;90.70
5621;DHT22;2832;50.864;12.186;2023-09-19T13:39:04;22.00;90.70
5621;DHT22;2832;50.864;12.186;2023-09-19T13:41:35;22.00;90.50
5621;DHT22;2832;50.864;12.186;2023-09-19T13:44:05;22.00;90.10
5621;DHT22;2832;50.864;12.186;2023-09-19T13:46:39;22.10;90.00
5621;DHT22;2832;50.864;12.186;2023-09-19T13:49:23;22.00;90.00
5621;DHT22;2832;50.864;12.186;2023-09-19T13:51:57;22.00;90.10
5621;DHT22;2832;50.864;12.186;2023-09-19T13:54:30;22.10;90.20
5621;DHT22;2832;50.864;12.186;2023-09-19T13:56:58;22.00;90.00
5621;DHT22;2832;50.864;12.186;2023-09-19T13:59:27;22.00;90.10
5621;DHT22;2832;50.864;12.186;2023-09-19T14:01:55;22.00;90.20
5621;DHT22;2832;50.864;12.186;2023-09-19T14:04:27;22.00;90.20
5621;DHT22;2832;50.864;12.186;2023-09-19T14:06:59;22.00;90.20
5621;DHT22;2832;50.864;12.186;2023-09-19T14:09:27;22.10;90.00
5621;DHT22;2832;50.864;12.186;2023-09-19T14:12:00;22.10;90.10
5621;DHT22;2832;50.864;12.186;2023-09-19T14:14:41;22.20;90.20
5621;DHT22;2832;50.864;12.186;2023-09-19T14:17:20;22.20;90.10
5621;DHT22;2832;50.864;12.186;2023-09-19T14:19:59;22.20;90.00
5621;DHT22;2832;50.864;12.186;2023-09-19T14:22:34;22.20;90.00
5621;DHT22;2832;50.864;12.186;2023-09-19T14:25:06;22.20;90.00
5621;DHT22;2832;50.864;12.186;2023-09-19T14:27:35;22.20;90.00
5621;DHT22;2832;50.864;12.186;2023-09-19T14:30:05;22.20;90.10
5621;DHT22;2832;50.864;12.186;2023-09-19T14:32:37;22.30;90.30
5621;DHT22;2832;50.864;12.186;2023-09-19T14:35:23;22.20;90.40
5621;DHT22;2832;50.864;12.186;2023-09-19T14:37:51;22.30;90.20
5621;DHT22;2832;50.864;12.186;2023-09-19T14:40:19;22.20;90.20
5621;DHT22;2832;50.864;12.186;2023-09-19T14:42:49;22.20;90.30
5621;DHT22;2832;50.864;12.186;2023-09-19T14:45:19;22.20;90.40
5621;DHT22;2832;50.864;12.186;2023-09-19T14:47:57;22.20;90.40
5621;DHT22;2832;50.864;12.186;2023-09-19T14:50:37;22.30;90.30
5621;DHT22;2832;50.864;12.186;2023-09-19T14:53:13;22.30;90.20
5621;DHT22;2832;50.864;12.186;2023-09-19T14:55:41;22.30;90.00
5621;DHT22;2832;50.864;12.186;2023-09-19T14:58:11;22.30;90.00
5621;DHT22;2832;50.864;12.186;2023-09-19T15:00:40;22.30;89.70
5621;DHT22;2832;50.864;12.186;2023-09-19T15:03:11;22.30;89.30
5621;DHT22;2832;50.864;12.186;2023-09-19T15:05:47;22.30;89.30
5621;DHT22;2832;50.864;12.186;2023-09-19T15:08:20;22.30;89.10
5621;DHT22;2832;50.864;12.186;2023-09-19T15:10:54;22.30;88.60
5621;DHT22;2832;50.864;12.186;2023-09-19T15:13:34;22.30;88.60
5621;DHT22;2832;50.864;12.186;2023-09-19T15:16:07;22.20;87.20
5621;DHT22;2832;50.864;12.186;2023-09-19T15:18:41;22.10;87.60
5621;DHT22;2832;50.864;12.186;2023-09-19T15:21:15;22.10;87.50
5621;DHT22;2832;50.864;12.186;2023-09-19T15:23:47;22.10;87.20
5621;DHT22;2832;50.864;12.186;2023-09-19T15:26:21;22.10;86.40
5621;DHT22;2832;50.864;12.186;2023-09-19T15:29:00;22.10;86.10
5621;DHT22;2832;50.864;12.186;2023-09-19T15:31:42;22.10;85.60
5621;DHT22;2832;50.864;12.186;2023-09-19T15:34:33;22.10;85.40
5621;DHT22;2832;50.864;12.186;2023-09-19T15:37:08;22.20;85.30
5621;DHT22;2832;50.864;12.186;2023-09-19T15:39:41;22.20;85.50
5621;DHT22;2832;50.864;12.186;2023-09-19T15:42:12;22.20;85.40
5621;DHT22;2832;50.864;12.186;2023-09-19T15:44:44;22.20;85.40
5621;DHT22;2832;50.864;12.186;2023-09-19T15:47:19;22.10;85.30
5621;DHT22;2832;50.864;12.186;2023-09-19T15:49:56;22.10;85.30
5621;DHT22;2832;50.864;12.186;2023-09-19T15:52:34;22.10;85.60
5621;DHT22;2832;50.864;12.186;2023-09-19T15:55:06;22.10;85.60
5621;DHT22;2832;50.864;12.186;2023-09-19T15:57:58;22.10;85.50
5621;DHT22;2832;50.864;12.186;2023-09-19T16:00:27;22.10;85.70
5621;DHT22;2832;50.864;12.186;2023-09-19T16:02:55;22.10;85.60
5621;DHT22;2832;50.864;12.186;2023-09-19T16:05:27;22.20;85.70
5621;DHT22;2832;50.864;12.186;2023-09-19T16:08:05;22.20;85.50
5621;DHT22;2832;50.864;12.186;2023-09-19T16:10:37;22.20;85.40
5621;DHT22;2832;50.864;12.186;2023-09-19T16:13:06;22.20;85.20
5621;DHT22;2832;50.864;12.186;2023-09-19T16:15:41;22.20;85.30
5621;DHT22;2832;50.864;12.186;2023-09-19T16:18:11;22.20;84.90
5621;DHT22;2832;50.864;12.186;2023-09-19T16:20:39;22.20;84.70
5621;DHT22;2832;50.864;12.186;2023-09-19T16:23:13;22.20;84.60
5621;DHT22;2832;50.864;12.186;2023-09-19T16:25:45;22.20;84.40
5621;DHT22;2832;50.864;12.186;2023-09-19T16:28:19;22.20;84.20
5621;DHT22;2832;50.864;12.186;2023-09-19T16:31:08;22.20;84.20
5621;DHT22;2832;50.864;12.186;2023-09-19T16:33:37;22.30;84.10
5621;DHT22;2832;50.864;12.186;2023-09-19T16:36:11;22.20;83.60
5621;DHT22;2832;50.864;12.186;2023-09-19T16:38:59;22.30;83.60
5621;DHT22;2832;50.864;12.186;2023-09-19T16:41:48;22.20;83.50
5621;DHT22;2832;50.864;12.186;2023-09-19T16:44:37;22.20;82.80
5621;DHT22;2832;50.864;12.186;2023-09-19T16:47:11;22.10;82.10